Time;durP1;ratioP1;P1;durP2;ratioP2;P2;SDS_P1;SDS_P2;PMS_P1;PMS_P2;Temp;Humidity;BMP_temperature;BMP_pressure;BME280_temperature;BME280_humidity;BME280_pressure;Samples;Min_cycle;Max_cycle;Signal;HPM_P1;HPM_P2
2021/03/16 00:01:28;;;;;;;3.20;0.88;;;;;;;17.70;55.75;102353.94;6270586;22;20022;-77
2021/03/16 00:06:29;;;;;;;3.30;1.00;;;;;;;17.71;55.76;102354.81;6268163;23;19906;-79
2021/03/16 00:08:54;;;;;;;2.78;0.90;;;;;;;17.69;55.43;102357.41;6244287;23;20012;-79
2021/03/16 00:11:20;;;;;;;2.45;0.90;;;;;;;17.69;55.64;102362.59;6221369;22;20012;-79
2021/03/16 00:13:45;;;;;;;3.22;0.98;;;;;;;17.67;55.59;102361.72;6249379;22;20022;-78
2021/03/16 00:16:10;;;;;;;2.33;1.05;;;;;;;17.68;55.54;102356.53;6275973;22;20026;-78
2021/03/16 00:18:36;;;;;;;4.03;1.23;;;;;;;17.67;55.45;102354.75;6275590;22;20008;-78
2021/03/16 00:23:26;;;;;;;3.17;0.80;;;;;;;17.67;55.50;102356.50;6268280;22;20054;-79
2021/03/16 00:25:52;;;;;;;2.58;0.85;;;;;;;17.66;55.26;102354.75;6267488;23;20004;-79
2021/03/16 00:28:17;;;;;;;4.60;0.82;;;;;;;17.68;55.21;102371.25;6267559;23;20000;-79
2021/03/16 00:30:43;;;;;;;2.35;0.90;;;;;;;17.65;55.47;102372.09;6268479;22;20017;-79
2021/03/16 00:33:08;;;;;;;2.17;0.73;;;;;;;17.66;55.41;102365.19;6239372;23;20018;-80
2021/03/16 00:35:34;;;;;;;2.47;0.90;;;;;;;17.67;55.28;102366.91;6241613;23;20008;-78
2021/03/16 00:37:59;;;;;;;3.00;0.93;;;;;;;17.66;55.42;102376.47;6215141;23;20031;-78
2021/03/16 00:40:25;;;;;;;2.65;0.90;;;;;;;17.64;55.27;102380.78;6238034;23;20014;-78
2021/03/16 00:42:50;;;;;;;2.13;0.70;;;;;;;17.66;55.48;102379.06;6263006;23;20015;-78
2021/03/16 00:45:16;;;;;;;3.30;0.85;;;;;;;17.64;55.36;102372.09;6209573;23;20024;-78
2021/03/16 00:47:41;;;;;;;2.17;0.88;;;;;;;17.66;55.37;102379.06;6234067;23;20060;-78
2021/03/16 00:50:08;;;;;;;2.25;0.90;;;;;;;17.62;55.23;102369.47;6233814;23;20117;-78
2021/03/16 00:52:34;;;;;;;2.40;0.90;;;;;;;17.65;55.27;102377.31;6238812;23;20000;-78
2021/03/16 01:00:10;;;;;;;2.15;0.85;;;;;;;17.63;55.46;102380.75;6262944;22;20030;-78
2021/03/16 01:02:35;;;;;;;1.38;0.50;;;;;;;17.62;55.22;102379.00;6298905;22;20004;-79
2021/03/16 01:05:01;;;;;;;2.17;0.85;;;;;;;17.64;55.27;102388.56;6272305;22;20317;-79
2021/03/16 01:07:27;;;;;;;2.88;0.80;;;;;;;17.61;55.37;102380.72;6274337;22;20003;-79
2021/03/16 01:09:52;;;;;;;1.73;0.70;;;;;;;17.64;55.06;102387.72;6276555;22;20427;-79
2021/03/16 01:12:19;;;;;;;2.25;0.98;;;;;;;17.62;55.08;102386.81;6276937;22;20064;-79
2021/03/16 01:14:44;;;;;;;3.00;0.75;;;;;;;17.62;55.22;102389.41;6303193;22;20004;-79
2021/03/16 01:17:09;;;;;;;1.48;0.65;;;;;;;17.62;55.25;102392.88;6277232;22;20058;-79
2021/03/16 01:19:37;;;;;;;2.95;1.00;;;;;;;17.63;55.18;102393.75;6303561;22;20008;-79
2021/03/16 01:22:05;;;;;;;2.97;0.90;;;;;;;17.61;55.02;102388.50;6274529;22;19999;-79
2021/03/16 01:24:31;;;;;;;2.22;0.80;;;;;;;17.61;55.26;102385.03;6287027;22;20031;-78
2021/03/16 01:26:56;;;;;;;2.67;0.80;;;;;;;17.62;55.33;102386.81;6242937;23;19996;-78
2021/03/16 01:29:22;;;;;;;1.77;0.70;;;;;;;17.59;55.18;102382.41;6241020;23;20012;-78
2021/03/16 01:34:24;;;;;;;1.80;0.80;;;;;;;17.61;55.14;102395.47;6235551;22;20023;-78
2021/03/16 01:36:50;;;;;;;1.60;0.50;;;;;;;17.61;55.08;102391.13;6186447;23;20021;-78
2021/03/16 01:39:15;;;;;;;2.28;0.77;;;;;;;17.59;54.91;102387.63;6161319;23;20047;-78
2021/03/16 01:41:41;;;;;;;2.17;0.80;;;;;;;17.58;55.07;102385.00;6189306;23;20006;-78
2021/03/16 01:44:06;;;;;;;1.73;0.77;;;;;;;17.60;55.23;102385.91;6206658;23;20013;-78
2021/03/16 01:46:31;;;;;;;2.83;0.88;;;;;;;17.58;55.18;102390.22;6229198;23;20009;-78
2021/03/16 01:48:57;;;;;;;1.98;0.70;;;;;;;17.60;55.06;102393.72;6204028;23;20021;-78
2021/03/16 01:51:22;;;;;;;1.45;0.70;;;;;;;17.59;55.01;102392.81;6267145;22;20015;-79
2021/03/16 01:53:48;;;;;;;3.03;0.98;;;;;;;17.58;55.04;102391.09;6271829;22;20016;-79
2021/03/16 01:56:15;;;;;;;2.03;0.70;;;;;;;17.57;55.08;102391.94;6273001;22;20050;-78
2021/03/16 01:58:43;;;;;;;2.10;0.80;;;;;;;17.58;54.94;102396.28;6217433;23;20446;-80
2021/03/16 02:01:09;;;;;;;1.83;0.70;;;;;;;17.58;55.28;102396.28;6151317;23;20017;-78
2021/03/16 02:03:34;;;;;;;3.15;0.98;;;;;;;17.58;55.03;102392.81;6153529;23;20076;-78
2021/03/16 02:06:03;;;;;;;2.08;0.70;;;;;;;17.56;55.05;102391.91;6176302;23;20016;-78
2021/03/16 02:11:16;;;;;;;2.70;0.90;;;;;;;17.58;54.95;102398.03;6269312;22;20016;-78
2021/03/16 02:14:19;;;;;;;2.70;0.80;;;;;;;17.57;54.97;102396.25;6244818;23;20047;-78
2021/03/16 02:17:22;;;;;;;1.30;0.60;;;;;;;17.56;54.98;102391.91;6245910;23;20015;-79
2021/03/16 02:20:08;;;;;;;1.80;0.67;;;;;;;17.56;54.80;102394.53;6208658;23;20004;-78
2021/03/16 02:22:38;;;;;;;2.70;0.77;;;;;;;17.54;54.90;102384.06;6244327;23;19984;-78
2021/03/16 02:28:07;;;;;;;2.35;0.82;;;;;;;17.56;54.73;102386.72;6276330;22;20081;-79
2021/03/16 02:30:34;;;;;;;2.10;0.73;;;;;;;17.54;55.11;102393.63;6235755;22;20035;-78
2021/03/16 02:33:01;;;;;;;2.35;0.70;;;;;;;17.54;55.09;102385.81;6210278;23;20039;-79
2021/03/16 02:35:28;;;;;;;1.30;0.60;;;;;;;17.52;54.93;102385.78;6260908;23;20001;-78
2021/03/16 02:37:55;;;;;;;2.13;0.80;;;;;;;17.53;54.81;102387.53;6286460;22;20018;-78
2021/03/16 02:40:25;;;;;;;2.35;0.82;;;;;;;17.53;54.80;102392.75;6240839;23;20030;-78
2021/03/16 02:42:51;;;;;;;1.90;0.60;;;;;;;17.53;54.67;102391.84;6239546;23;20000;-78
2021/03/16 02:45:19;;;;;;;2.08;0.85;;;;;;;17.51;54.81;102394.47;6211066;23;20008;-77
2021/03/16 02:47:45;;;;;;;2.33;0.70;;;;;;;17.54;55.01;102398.81;6237180;23;20004;-78
2021/03/16 02:50:12;;;;;;;2.22;0.73;;;;;;;17.51;54.94;102396.16;6236566;23;20061;-78
2021/03/16 02:52:38;;;;;;;4.65;0.75;;;;;;;17.51;54.82;102396.16;6236618;23;20008;-78
2021/03/16 02:55:06;;;;;;;1.77;0.70;;;;;;;17.50;54.82;102397.88;6235541;23;20031;-77
2021/03/16 02:57:32;;;;;;;2.30;0.88;;;;;;;17.51;54.95;102396.16;6261868;23;20014;-78
2021/03/16 03:00:04;;;;;;;2.53;0.80;;;;;;;17.51;54.92;102393.56;6238007;23;20000;-78
2021/03/16 03:02:33;;;;;;;2.15;0.70;;;;;;;17.50;54.70;102403.09;6238746;23;19999;-78
2021/03/16 03:05:01;;;;;;;3.53;0.73;;;;;;;17.50;54.86;102397.03;6237835;23;20401;-77
2021/03/16 03:07:28;;;;;;;2.22;0.73;;;;;;;17.50;54.74;102400.50;6237181;23;20004;-78
2021/03/16 03:09:54;;;;;;;1.20;0.60;;;;;;;17.48;54.81;102395.28;6233066;22;20020;-78
2021/03/16 03:12:20;;;;;;;1.63;0.60;;;;;;;17.48;54.91;102408.31;6215377;23;20004;-78
2021/03/16 03:14:45;;;;;;;1.45;0.70;;;;;;;17.51;54.57;102403.97;6190119;23;20027;-78
2021/03/16 03:17:10;;;;;;;2.47;0.98;;;;;;;17.51;54.74;102404.88;6214320;23;20012;-78
2021/03/16 03:19:36;;;;;;;2.47;0.80;;;;;;;17.49;54.83;102403.97;6209005;23;20028;-78
2021/03/16 03:22:14;;;;;;;1.65;0.65;;;;;;;17.50;54.82;102410.03;6207266;23;20009;-78
2021/03/16 03:24:51;;;;;;;2.13;0.85;;;;;;;17.48;54.71;102407.41;6232994;23;20008;-78
2021/03/16 03:27:22;;;;;;;1.90;0.80;;;;;;;17.48;54.57;102405.69;6232155;23;20027;-78
2021/03/16 03:29:50;;;;;;;3.30;0.75;;;;;;;17.48;54.65;102410.00;6234178;23;20063;-77
2021/03/16 03:32:21;;;;;;;1.45;0.75;;;;;;;17.47;54.97;102414.34;6209570;23;20004;-78
2021/03/16 03:35:07;;;;;;;2.20;0.70;;;;;;;17.49;54.70;102414.38;6235665;23;20007;-78
2021/03/16 03:43:22;;;;;;;2.72;0.95;;;;;;;17.47;54.56;102419.53;6297335;22;20023;-78
2021/03/16 03:45:50;;;;;;;1.50;0.70;;;;;;;17.45;54.55;102426.44;6271771;22;20011;-77
2021/03/16 03:48:18;;;;;;;2.60;0.80;;;;;;;17.44;54.52;102416.91;6273532;22;19996;-78
2021/03/16 03:50:48;;;;;;;2.25;0.80;;;;;;;17.47;54.65;102432.56;6273972;22;19988;-78
2021/03/16 03:53:15;;;;;;;2.85;0.70;;;;;;;17.45;54.65;102429.06;6274145;22;20000;-78
2021/03/16 03:55:44;;;;;;;1.92;0.65;;;;;;;17.45;54.78;102429.06;6300467;22;20030;-78
2021/03/16 03:58:10;;;;;;;1.95;0.52;;;;;;;17.46;54.59;102432.53;6245599;22;20008;-78
2021/03/16 04:00:38;;;;;;;1.70;0.50;;;;;;;17.46;54.54;102442.94;6270430;22;20004;-78
2021/03/16 04:03:05;;;;;;;2.17;0.65;;;;;;;17.46;54.56;102438.63;6297305;22;19999;-77
2021/03/16 04:05:31;;;;;;;1.35;0.60;;;;;;;17.48;54.47;102436.03;6290448;22;20011;-78
2021/03/16 04:07:57;;;;;;;1.50;0.63;;;;;;;17.44;54.73;102432.53;6256594;22;20020;-78
2021/03/16 04:10:23;;;;;;;3.08;0.70;;;;;;;17.45;54.95;102443.81;6235424;23;20017;-79
2021/03/16 04:12:50;;;;;;;1.65;0.60;;;;;;;17.44;54.64;102445.53;6234853;23;20009;-78
2021/03/16 04:15:16;;;;;;;1.98;0.60;;;;;;;17.45;54.81;102444.66;6232689;23;20008;-77
2021/03/16 04:17:44;;;;;;;1.27;0.60;;;;;;;17.43;54.63;102443.75;6231989;23;20017;-76
2021/03/16 04:20:11;;;;;;;2.55;0.70;;;;;;;17.43;54.48;102443.75;6231699;23;20015;-78
2021/03/16 04:22:38;;;;;;;2.10;0.60;;;;;;;17.44;54.65;102442.03;6207053;23;20075;-77
2021/03/16 04:25:05;;;;;;;2.28;0.80;;;;;;;17.44;54.67;102449.84;6233391;23;20005;-77
2021/03/16 04:27:30;;;;;;;1.90;0.70;;;;;;;17.44;54.54;102442.03;6232861;23;20046;-78
2021/03/16 04:30:05;;;;;;;2.55;0.70;;;;;;;17.45;54.32;102441.19;6240449;22;20017;-78
2021/03/16 04:32:30;;;;;;;2.22;0.82;;;;;;;17.44;54.55;102450.75;6233853;23;20024;-77
2021/03/16 04:34:56;;;;;;;1.67;0.70;;;;;;;17.41;54.53;102448.06;6222870;22;20020;-78
2021/03/16 04:37:21;;;;;;;2.03;0.80;;;;;;;17.42;54.18;102452.44;6217759;23;20004;-77
2021/03/16 04:39:47;;;;;;;1.85;0.70;;;;;;;17.43;54.52;102454.19;6230803;22;20075;-78
2021/03/16 04:42:12;;;;;;;2.28;0.80;;;;;;;17.40;54.59;102446.34;6251731;22;20043;-78
2021/03/16 04:44:37;;;;;;;1.83;0.60;;;;;;;17.41;54.47;102455.88;6252210;22;20008;-77
2021/03/16 04:47:03;;;;;;;1.98;0.68;;;;;;;17.42;54.47;102459.34;6277732;22;20007;-78
2021/03/16 04:49:29;;;;;;;1.90;0.80;;;;;;;17.40;54.57;102458.47;6248851;22;20003;-78
2021/03/16 04:51:54;;;;;;;1.67;0.40;;;;;;;17.42;54.49;102467.16;6274192;22;20059;-77
2021/03/16 04:54:21;;;;;;;2.53;0.90;;;;;;;17.38;54.48;102466.25;6247657;22;20008;-78
2021/03/16 04:56:47;;;;;;;2.05;0.80;;;;;;;17.40;54.65;102476.69;6274438;22;20007;-77
2021/03/16 04:59:19;;;;;;;2.35;0.68;;;;;;;17.41;54.60;102473.22;6274519;22;20023;-78
2021/03/16 05:01:46;;;;;;;1.38;0.60;;;;;;;17.42;54.37;102482.75;6301363;22;20008;-78
2021/03/16 05:04:11;;;;;;;2.22;0.65;;;;;;;17.41;54.58;102483.63;6247903;22;20032;-77
2021/03/16 05:06:37;;;;;;;1.75;0.68;;;;;;;17.40;54.33;102474.97;6159888;23;20017;-78
2021/03/16 05:09:03;;;;;;;2.33;0.65;;;;;;;17.39;54.55;102473.19;6185255;23;20064;-77
2021/03/16 05:11:28;;;;;;;1.48;0.50;;;;;;;17.40;54.62;102471.50;6210638;23;20009;-78
2021/03/16 05:13:54;;;;;;;2.00;0.70;;;;;;;17.39;54.57;102478.38;6183799;23;20011;-78
2021/03/16 05:16:21;;;;;;;1.63;0.55;;;;;;;17.40;54.77;102479.28;6186470;23;19996;-78
2021/03/16 05:18:46;;;;;;;2.05;0.63;;;;;;;17.41;54.45;102487.09;6161693;23;20032;-78
2021/03/16 05:21:12;;;;;;;2.33;0.80;;;;;;;17.38;54.55;102484.47;6210958;23;20004;-78
2021/03/16 05:23:37;;;;;;;2.08;0.60;;;;;;;17.40;54.65;102492.31;6210484;23;20005;-77
2021/03/16 05:26:03;;;;;;;2.53;0.77;;;;;;;17.41;54.53;102489.72;6168294;23;20017;-78
2021/03/16 05:28:29;;;;;;;2.13;0.63;;;;;;;17.41;54.60;102491.44;6180045;23;20082;-79
2021/03/16 05:30:54;;;;;;;2.00;0.68;;;;;;;17.40;54.70;102487.97;6154278;23;20010;-78
2021/03/16 05:33:20;;;;;;;1.85;0.70;;;;;;;17.43;54.67;102493.22;6154144;23;20016;-77
2021/03/16 05:35:46;;;;;;;1.50;0.57;;;;;;;17.43;54.75;102493.22;6154606;23;20010;-78
2021/03/16 05:38:11;;;;;;;1.90;0.60;;;;;;;17.44;54.63;102488.88;6215928;22;20100;-78
2021/03/16 05:40:37;;;;;;;2.53;0.68;;;;;;;17.43;54.64;102488.00;6210941;23;20099;-78
2021/03/16 05:43:04;;;;;;;1.42;0.60;;;;;;;17.44;54.49;102496.69;6234478;23;20055;-79
2021/03/16 05:45:30;;;;;;;3.85;0.75;;;;;;;17.45;54.46;102491.50;6210233;23;20018;-78
2021/03/16 05:47:57;;;;;;;1.98;0.63;;;;;;;17.46;54.56;102495.00;6209249;23;20008;-78
2021/03/16 05:50:22;;;;;;;1.50;0.57;;;;;;;17.44;54.59;102491.47;6234676;23;20000;-78
2021/03/16 05:52:48;;;;;;;3.40;0.73;;;;;;;17.50;54.30;102490.72;6250763;22;20021;-78
2021/03/16 05:55:14;;;;;;;1.73;0.65;;;;;;;17.52;54.58;102486.41;6235967;23;20013;-79
2021/03/16 05:57:40;;;;;;;1.90;0.70;;;;;;;17.53;54.52;102490.75;6216780;22;20047;-78
2021/03/16 06:00:07;;;;;;;2.15;0.63;;;;;;;17.55;54.81;102499.47;6213788;23;20008;-78
2021/03/16 06:02:36;;;;;;;3.05;0.65;;;;;;;17.56;54.88;102494.31;6238501;23;20004;-78
2021/03/16 06:05:01;;;;;;;2.17;0.65;;;;;;;17.57;54.77;102496.06;6213197;23;20000;-78
2021/03/16 06:07:27;;;;;;;3.15;1.00;;;;;;;17.58;54.91;102494.34;6213563;23;20019;-78
2021/03/16 06:09:52;;;;;;;2.53;0.77;;;;;;;17.54;54.76;102487.31;6226077;23;20001;-78
2021/03/16 06:12:28;;;;;;;1.25;0.57;;;;;;;17.56;54.81;102486.50;6185515;23;20020;-79
2021/03/16 06:14:53;;;;;;;3.70;0.73;;;;;;;17.57;54.83;102492.56;6209537;23;19997;-79
2021/03/16 06:19:54;;;;;;;3.38;0.93;;;;;;;17.58;54.76;102484.78;6269693;22;20000;-77
2021/03/16 06:22:19;;;;;;;1.30;0.60;;;;;;;17.58;54.61;102483.94;6242479;23;20043;-78
2021/03/16 06:24:47;;;;;;;4.57;0.50;;;;;;;17.59;54.71;102489.13;6242881;23;19989;-77
2021/03/16 06:27:26;;;;;;;2.97;0.63;;;;;;;17.60;54.69;102490.03;6244488;23;20011;-78
2021/03/16 06:29:52;;;;;;;1.88;0.93;;;;;;;17.57;54.39;102490.88;6270856;23;20000;-78
2021/03/16 06:32:18;;;;;;;4.03;1.42;;;;;;;17.54;54.39;102483.00;6243270;23;20012;-78
2021/03/16 06:34:44;;;;;;;6.15;1.90;;;;;;;17.54;54.66;102489.94;6242969;23;20004;-78
2021/03/16 06:37:11;;;;;;;10.48;3.00;;;;;;;17.59;54.19;102491.75;6243193;23;20032;-77
2021/03/16 06:39:44;;;;;;;11.50;3.42;;;;;;;17.65;54.11;102498.78;6237126;23;20015;-78
2021/03/16 06:42:28;;;;;;;12.35;3.15;;;;;;;17.66;54.01;102493.63;6237630;23;20000;-78
2021/03/16 06:45:17;;;;;;;12.00;3.08;;;;;;;17.68;54.13;102493.63;6211137;23;20004;-78
2021/03/16 06:47:44;;;;;;;11.27;2.95;;;;;;;17.69;53.98;102504.06;6236330;23;20065;-78
2021/03/16 06:50:13;;;;;;;9.85;2.85;;;;;;;17.72;53.95;102511.03;6236968;23;20028;-77
2021/03/16 06:52:38;;;;;;;10.88;3.30;;;;;;;17.70;54.00;102499.72;6209983;23;20016;-78
2021/03/16 06:55:13;;;;;;;11.82;3.25;;;;;;;17.73;54.17;102497.19;6213376;23;20068;-78
2021/03/16 06:57:39;;;;;;;8.88;2.55;;;;;;;17.72;54.06;102492.81;6211969;23;20012;-78
2021/03/16 07:00:15;;;;;;;8.48;2.58;;;;;;;17.75;54.03;102498.09;6238402;23;20048;-78
2021/03/16 07:02:41;;;;;;;8.45;2.70;;;;;;;17.75;53.90;102503.31;6238539;23;20000;-77
2021/03/16 07:05:07;;;;;;;10.85;2.65;;;;;;;17.74;53.91;102504.13;6238947;23;20048;-78
2021/03/16 07:07:33;;;;;;;7.68;2.70;;;;;;;17.78;53.80;102507.69;6212341;23;20004;-78
2021/03/16 07:10:06;;;;;;;8.02;2.60;;;;;;;17.77;54.06;102506.81;6209507;23;20001;-78
2021/03/16 07:12:35;;;;;;;6.20;2.25;;;;;;;17.80;53.94;102505.97;6208849;23;20036;-78
2021/03/16 07:15:02;;;;;;;5.28;1.85;;;;;;;17.80;54.07;102512.06;6209442;23;19993;-78
2021/03/16 07:17:28;;;;;;;7.07;2.10;;;;;;;17.81;53.78;102513.81;6207175;23;20021;-78
2021/03/16 07:20:06;;;;;;;8.32;2.30;;;;;;;17.80;53.67;102514.66;6209730;23;20036;-78
2021/03/16 07:22:50;;;;;;;6.10;2.20;;;;;;;17.83;54.05;102519.06;6210179;23;20036;-77
2021/03/16 07:25:15;;;;;;;;;;;;;;;17.84;53.91;102524.31;6232201;23;20313;-78
2021/03/16 07:27:41;;;;;;;6.32;2.10;;;;;;;17.86;53.89;102524.34;6209394;23;19918;-78
2021/03/16 07:30:09;;;;;;;5.63;1.67;;;;;;;17.88;54.11;102525.25;6223628;22;20008;-77
2021/03/16 07:32:35;;;;;;;6.32;1.90;;;;;;;17.89;53.96;102522.66;6234153;23;20000;-77
2021/03/16 07:35:01;;;;;;;6.03;1.90;;;;;;;17.91;54.16;102527.03;6278443;22;20083;-77
2021/03/16 07:37:29;;;;;;;7.63;2.13;;;;;;;17.95;53.93;102541.84;6269565;22;20034;-79
2021/03/16 07:39:59;;;;;;;5.40;1.77;;;;;;;17.94;53.60;102532.25;6268426;22;20015;-79
2021/03/16 07:42:28;;;;;;;6.68;1.77;;;;;;;17.93;53.86;102528.78;6228177;22;20118;-77
2021/03/16 07:47:19;;;;;;;6.97;1.98;;;;;;;17.99;53.81;102533.25;6297134;22;20019;-77
2021/03/16 07:49:44;;;;;;;5.70;1.77;;;;;;;17.98;53.94;102527.13;6297114;22;20017;-77
2021/03/16 07:52:23;;;;;;;5.82;2.10;;;;;;;17.98;53.84;102534.06;6245022;22;20037;-78
2021/03/16 07:54:52;;;;;;;6.25;1.83;;;;;;;17.98;53.86;102529.72;6244365;22;20039;-77
2021/03/16 07:57:31;;;;;;;5.65;2.00;;;;;;;18.01;53.88;102528.94;6263924;23;20020;-77
2021/03/16 08:00:07;;;;;;;6.47;1.90;;;;;;;18.01;53.62;102531.53;6256947;22;20016;-77
2021/03/16 08:02:35;;;;;;;5.18;1.60;;;;;;;18.00;53.59;102537.56;6207362;23;20016;-78
2021/03/16 08:05:01;;;;;;;4.35;1.90;;;;;;;18.00;53.80;102530.63;6233592;23;19997;-78
2021/03/16 08:07:30;;;;;;;4.55;1.80;;;;;;;18.02;53.48;102543.69;6232596;23;20058;-77
2021/03/16 08:09:59;;;;;;;4.00;1.50;;;;;;;18.03;53.83;102541.13;6232340;23;20027;-77
2021/03/16 08:12:29;;;;;;;4.47;1.52;;;;;;;18.03;53.83;102535.91;6232362;23;20069;-78
2021/03/16 08:14:55;;;;;;;3.50;1.63;;;;;;;18.06;53.60;102532.47;6231735;23;20009;-77
2021/03/16 08:17:28;;;;;;;3.20;1.52;;;;;;;18.09;53.40;102538.63;6232299;23;20009;-77
2021/03/16 08:19:54;;;;;;;4.32;1.52;;;;;;;18.11;53.46;102538.63;6233207;23;20016;-77
2021/03/16 08:22:21;;;;;;;4.25;1.35;;;;;;;18.13;53.38;102542.13;6231842;23;20001;-77
2021/03/16 08:24:46;;;;;;;3.13;1.50;;;;;;;18.14;53.58;102543.00;6230214;23;20004;-77
2021/03/16 08:27:14;;;;;;;3.88;1.40;;;;;;;18.16;53.38;102552.63;6229890;23;20028;-77
2021/03/16 08:29:46;;;;;;;2.85;1.27;;;;;;;18.17;53.35;102562.16;6230788;23;20016;-77
2021/03/16 08:32:20;;;;;;;3.10;1.20;;;;;;;18.19;53.46;102554.38;6229121;23;20000;-78
2021/03/16 08:34:47;;;;;;;3.47;1.50;;;;;;;18.21;53.22;102561.38;6204078;23;20008;-77
2021/03/16 08:37:31;;;;;;;3.40;1.35;;;;;;;18.22;53.21;102552.69;6230321;23;20044;-78
2021/03/16 08:39:57;;;;;;;3.15;1.33;;;;;;;18.22;53.27;102555.28;6200194;23;20027;-77
2021/03/16 08:42:27;;;;;;;2.97;1.20;;;;;;;18.28;53.09;102560.59;6197833;23;20013;-78
2021/03/16 08:44:54;;;;;;;2.30;1.20;;;;;;;18.28;53.01;102559.72;6197794;23;20059;-77
2021/03/16 08:47:22;;;;;;;2.97;1.40;;;;;;;18.28;52.97;102563.19;6195107;23;20009;-77
2021/03/16 08:49:50;;;;;;;2.53;1.05;;;;;;;18.31;53.01;102564.97;6198793;23;20005;-77
2021/03/16 08:52:22;;;;;;;3.03;1.30;;;;;;;18.34;52.92;102570.25;6200929;23;20036;-77
2021/03/16 08:54:50;;;;;;;2.85;1.13;;;;;;;18.37;52.92;102565.06;6201195;23;20024;-77
2021/03/16 08:57:26;;;;;;;2.75;1.23;;;;;;;18.40;52.59;102574.66;6198957;23;20009;-77
2021/03/16 08:59:57;;;;;;;2.35;1.00;;;;;;;18.41;52.58;102566.00;6199545;23;20006;-79
2021/03/16 09:02:28;;;;;;;2.40;1.08;;;;;;;18.39;52.87;102562.50;6200115;23;20009;-76
2021/03/16 09:04:54;;;;;;;2.58;1.05;;;;;;;18.36;52.66;102565.94;6200467;23;20004;-78
2021/03/16 09:07:34;;;;;;;3.15;1.17;;;;;;;18.32;53.06;102560.66;6202510;23;20001;-78
2021/03/16 09:10:12;;;;;;;2.00;0.90;;;;;;;18.29;53.03;102566.66;6203381;23;20036;-77
2021/03/16 09:12:42;;;;;;;3.00;1.00;;;;;;;18.27;53.21;102571.03;6204317;23;20001;-78
2021/03/16 09:15:11;;;;;;;1.98;1.00;;;;;;;18.22;53.37;102576.13;6204028;23;20453;-78
2021/03/16 09:17:39;;;;;;;3.83;1.30;;;;;;;18.14;53.52;102558.63;6203189;23;20036;-78
2021/03/16 09:20:17;;;;;;;3.53;0.93;;;;;;;18.11;53.29;102564.66;6203812;23;20005;-78
2021/03/16 09:22:45;;;;;;;4.22;1.10;;;;;;;18.09;53.71;102566.38;6201933;23;20067;-78
2021/03/16 09:25:12;;;;;;;3.00;1.00;;;;;;;18.09;53.43;102561.16;6202681;23;20080;-78
2021/03/16 09:27:39;;;;;;;2.72;1.10;;;;;;;18.11;53.43;102566.41;6200923;23;20072;-77
2021/03/16 09:30:07;;;;;;;2.63;1.10;;;;;;;18.16;53.35;102572.56;6204779;23;20012;-78
2021/03/16 09:32:36;;;;;;;3.10;1.17;;;;;;;18.20;53.17;102572.63;6207304;23;20055;-77
2021/03/16 09:35:02;;;;;;;3.05;0.93;;;;;;;18.20;53.35;102577.84;6206134;23;20005;-78
2021/03/16 09:37:27;;;;;;;2.28;1.05;;;;;;;18.22;53.24;102577.88;6202355;23;20020;-79
2021/03/16 09:39:59;;;;;;;1.73;0.88;;;;;;;18.21;53.47;102574.41;6203434;23;20013;-79
2021/03/16 09:42:38;;;;;;;2.30;0.80;;;;;;;18.21;53.38;102569.19;6204914;23;20005;-78
2021/03/16 09:45:17;;;;;;;2.63;1.10;;;;;;;18.19;53.34;102577.84;6244648;22;20024;-78
2021/03/16 09:47:43;;;;;;;3.10;1.08;;;;;;;18.16;53.51;102576.06;6267093;23;20016;-79
2021/03/16 09:50:13;;;;;;;2.53;0.90;;;;;;;18.19;53.33;102572.63;6265113;23;20031;-77
2021/03/16 09:52:38;;;;;;;2.97;0.82;;;;;;;18.17;53.41;102569.13;6234913;23;20011;-77
2021/03/16 09:55:04;;;;;;;1.73;0.80;;;;;;;18.18;53.42;102574.34;6235689;23;20000;-78
2021/03/16 09:57:32;;;;;;;2.40;0.90;;;;;;;18.18;53.34;102573.47;6237316;23;20416;-78
2021/03/16 10:00:00;;;;;;;2.72;1.05;;;;;;;18.17;53.40;102575.19;6238841;23;20013;-78
2021/03/16 10:02:34;;;;;;;1.88;0.80;;;;;;;18.15;53.47;102568.22;6237663;23;20006;-78
2021/03/16 10:05:06;;;;;;;1.63;0.80;;;;;;;18.18;53.62;102571.75;6265579;23;20004;-78
2021/03/16 10:07:33;;;;;;;2.38;0.75;;;;;;;18.19;53.35;102578.69;6240386;23;20064;-78
2021/03/16 10:10:13;;;;;;;1.85;0.85;;;;;;;18.17;53.45;102564.78;6267109;23;20075;-78
2021/03/16 10:12:48;;;;;;;2.75;0.90;;;;;;;18.20;53.25;102577.84;6241512;23;20008;-79
2021/03/16 10:15:30;;;;;;;1.45;0.80;;;;;;;18.23;53.36;102569.22;6241820;23;20369;-79
2021/03/16 10:17:59;;;;;;;2.80;0.80;;;;;;;18.25;53.22;102557.94;6242456;23;20008;-78
2021/03/16 10:20:28;;;;;;;1.42;0.88;;;;;;;18.26;53.55;102564.91;6269144;23;20486;-79
2021/03/16 10:22:59;;;;;;;1.13;0.55;;;;;;;18.25;53.12;102568.38;6240998;23;20007;-78
2021/03/16 10:25:53;;;;;;;1.95;0.60;;;;;;;18.25;53.37;102560.56;6241845;23;20000;-79
2021/03/16 10:28:51;;;;;;;1.70;0.60;;;;;;;18.24;53.27;102571.81;6247419;23;20465;-78
2021/03/16 10:31:39;;;;;;;2.17;0.80;;;;;;;18.24;53.32;102560.53;6269830;23;19988;-79
2021/03/16 10:34:08;;;;;;;1.65;0.70;;;;;;;18.27;53.13;102574.50;6270408;23;20039;-79
2021/03/16 10:39:28;;;;;;;2.13;0.93;;;;;;;18.28;52.99;102573.63;6221815;22;20004;-79
2021/03/16 10:45:31;;;;;;;1.80;0.70;;;;;;;18.32;53.16;102576.28;6296344;22;20024;31
2021/03/16 10:48:49;;;;;;;1.50;0.70;;;;;;;18.30;53.08;102584.94;6233877;23;20020;-79
2021/03/16 10:51:14;;;;;;;1.17;0.70;;;;;;;18.28;53.25;102577.97;6210099;23;20020;-79
2021/03/16 10:53:48;;;;;;;1.58;0.63;;;;;;;18.29;53.15;102579.69;6242598;22;20023;-79
2021/03/16 10:56:56;;;;;;;1.83;0.60;;;;;;;18.34;53.13;102587.63;6265750;23;20008;-79
2021/03/16 11:01:55;;;;;;;1.73;0.60;;;;;;;18.35;52.92;102573.72;6275929;22;20024;-79
2021/03/16 11:04:42;;;;;;;1.15;0.55;;;;;;;18.37;53.00;102577.22;6271086;22;20011;-79
2021/03/16 11:10:11;;;;;;;1.00;0.60;;;;;;;18.34;53.10;102585.88;6284341;22;20453;-79
2021/03/16 11:12:52;;;;;;;0.82;0.52;;;;;;;18.33;52.96;102571.09;6273938;22;20023;-79
2021/03/16 11:15:19;;;;;;;1.58;0.70;;;;;;;18.33;52.99;102567.59;6250921;22;20014;-80
2021/03/16 11:18:06;;;;;;;1.52;0.63;;;;;;;18.36;52.87;102570.28;6299992;22;20012;-80
2021/03/16 11:20:52;;;;;;;1.33;0.60;;;;;;;18.37;52.81;102570.28;6294880;22;20375;-79
2021/03/16 11:23:26;;;;;;;3.05;0.68;;;;;;;18.37;52.74;102572.00;6238254;22;20358;-79
2021/03/16 11:26:28;;;;;;;1.10;0.50;;;;;;;18.40;52.74;102577.25;6246079;22;20020;-81
2021/03/16 11:29:15;;;;;;;1.55;0.65;;;;;;;18.40;52.91;102566.84;6271700;23;20019;-80
2021/03/16 11:32:11;;;;;;;1.23;0.50;;;;;;;18.37;52.75;102562.47;6289716;22;20015;-79
2021/03/16 11:35:06;;;;;;;0.98;0.50;;;;;;;18.44;52.80;102568.63;6250281;22;19992;-79
2021/03/16 11:38:01;;;;;;;1.48;0.60;;;;;;;18.50;52.64;102569.59;6301331;22;20019;-80
2021/03/16 11:43:29;;;;;;;1.20;0.75;;;;;;;18.49;52.63;102561.78;6270254;22;20068;-80
2021/03/16 11:48:58;;;;;;;1.42;0.60;;;;;;;18.52;52.69;102563.53;6294751;22;20059;-80
2021/03/16 11:51:32;;;;;;;2.13;0.50;;;;;;;18.50;52.56;102558.31;6277611;22;20038;-81
2021/03/16 11:56:24;;;;;;;1.63;0.70;;;;;;;18.53;52.72;102563.56;6292123;22;20024;-83
2021/03/16 11:59:05;;;;;;;1.85;0.50;;;;;;;18.53;52.61;102560.06;6249404;22;20033;-82
2021/03/16 12:04:59;;;;;;;1.27;0.55;;;;;;;18.60;52.47;102559.31;6242108;23;20035;-80
2021/03/16 12:08:05;;;;;;;1.95;0.60;;;;;;;18.56;52.74;102557.53;6210467;23;20021;-83
2021/03/16 12:11:11;;;;;;;1.02;0.50;;;;;;;18.57;52.51;102557.53;6240697;23;20040;-83
2021/03/16 12:13:42;;;;;;;1.40;0.50;;;;;;;18.57;52.48;102554.91;6240339;23;20003;-79
2021/03/16 12:16:27;;;;;;;0.85;0.50;;;;;;;18.58;52.55;102555.81;6205931;23;20004;-80
2021/03/16 12:19:17;;;;;;;1.13;0.50;;;;;;;18.60;52.56;102557.59;6188800;23;20072;-79
2021/03/16 12:21:53;;;;;;;0.50;0.40;;;;;;;18.59;52.68;102553.19;6238750;23;20012;-80
2021/03/16 12:24:20;;;;;;;0.60;0.40;;;;;;;18.59;52.51;102558.41;6187922;23;20136;-80
2021/03/16 12:26:54;;;;;;;0.90;0.45;;;;;;;18.60;52.54;102560.19;6212977;23;19997;-80
2021/03/16 12:30:02;;;;;;;1.30;0.40;;;;;;;18.56;52.70;102557.53;6239923;23;20009;-82
2021/03/16 12:33:25;;;;;;;1.23;0.47;;;;;;;18.53;52.76;102550.53;6243656;22;20031;-86